createdAt,value
2022-09-15T00:22:36.618Z,13.9
2022-09-15T00:32:36.625Z,13.8
2022-09-15T00:42:36.689Z,13.8
2022-09-15T00:52:36.736Z,13.7
2022-09-15T01:02:36.738Z,13.7
2022-09-15T01:12:36.675Z,13.6
2022-09-15T01:22:36.730Z,13.6
2022-09-15T01:32:36.728Z,13.5
2022-09-15T01:42:36.781Z,13.4
2022-09-15T01:52:36.764Z,13.3
2022-09-15T02:02:36.812Z,13.4
2022-09-15T02:12:36.787Z,13.2
2022-09-15T02:22:36.828Z,13.1
2022-09-15T02:32:36.844Z,12.9
2022-09-15T02:42:36.886Z,12.7
2022-09-15T02:52:36.856Z,12.7
2022-09-15T03:02:36.917Z,12.7
2022-09-15T03:12:36.907Z,12.7
2022-09-15T03:22:36.949Z,12.8
2022-09-15T03:32:36.936Z,12.8
2022-09-15T03:42:37.012Z,12.9
2022-09-15T03:52:36.981Z,12.7
2022-09-15T04:02:37.020Z,12.7
2022-09-15T04:12:37.010Z,12.7
2022-09-15T04:22:37.111Z,12.8
2022-09-15T04:32:37.129Z,12.5
2022-09-15T04:42:37.210Z,12.4
2022-09-15T04:52:37.107Z,12.4
2022-09-15T05:02:37.129Z,12.4
2022-09-15T05:12:37.143Z,12.4
2022-09-15T05:22:41.492Z,12.4
2022-09-15T05:32:37.159Z,12.3
2022-09-15T05:42:37.213Z,12.4
2022-09-15T05:52:37.219Z,12.6
2022-09-15T06:02:37.293Z,12.7
2022-09-15T06:12:37.227Z,12.8
2022-09-15T06:22:37.268Z,13.1
2022-09-15T06:32:37.263Z,13.1
2022-09-15T06:42:37.478Z,13.1
2022-09-15T06:52:37.314Z,13
2022-09-15T07:02:37.442Z,13.3
2022-09-15T07:12:37.359Z,13.4
2022-09-15T07:22:37.399Z,13.4
2022-09-15T07:32:37.382Z,13.9
2022-09-15T07:42:37.420Z,13.8
2022-09-15T07:52:37.432Z,13.6
2022-09-15T08:02:37.497Z,14
2022-09-15T08:12:37.446Z,14.1
2022-09-15T08:22:37.531Z,14
2022-09-15T08:32:37.486Z,14.5
2022-09-15T08:42:41.605Z,15
2022-09-15T08:52:37.515Z,15.1
2022-09-15T09:02:37.629Z,14.8
2022-09-15T09:12:37.558Z,14.8
2022-09-15T09:22:37.594Z,14.9
2022-09-15T09:32:37.574Z,15.1
2022-09-15T09:42:37.631Z,15.9
2022-09-15T09:52:37.637Z,15.5
2022-09-15T10:02:37.673Z,14.8
2022-09-15T10:12:37.660Z,15.5
2022-09-15T10:22:37.706Z,14.7
2022-09-15T10:32:37.693Z,14.7
2022-09-15T10:52:37.742Z,17.1
2022-09-15T11:02:37.765Z,15.8
2022-09-15T11:12:37.764Z,15.1
2022-09-15T11:22:37.765Z,14.6
2022-09-15T11:32:37.824Z,14.6
2022-09-15T11:42:37.806Z,14.1
2022-09-15T12:02:37.961Z,15.5
2022-09-15T12:12:37.827Z,14
2022-09-15T12:22:37.877Z,13.2
2022-09-15T12:32:37.874Z,17.7
2022-09-15T12:52:37.921Z,13.6
2022-09-15T13:02:37.970Z,13.4
2022-09-15T13:12:37.953Z,13.5
2022-09-15T13:22:37.941Z,12.1
2022-09-15T13:32:37.979Z,12.3
2022-09-15T13:42:37.986Z,13.8
2022-09-15T13:52:38.017Z,13.4
2022-09-15T14:02:38.171Z,12.8
2022-09-15T14:12:38.063Z,12.9
2022-09-15T14:22:38.042Z,12.5
2022-09-15T14:42:38.103Z,12.2
2022-09-15T14:52:38.102Z,12.3
2022-09-15T15:02:38.227Z,12
2022-09-15T15:22:38.174Z,11.9
2022-09-15T15:32:38.144Z,11.8
2022-09-15T15:42:38.206Z,11.7
2022-09-15T15:52:38.180Z,11.8
2022-09-15T16:02:38.214Z,11.8
2022-09-15T16:12:38.240Z,12
2022-09-15T16:32:38.281Z,11.7
2022-09-15T16:52:38.334Z,11.6
2022-09-15T17:02:38.311Z,11.5
2022-09-15T17:12:38.345Z,11.3
2022-09-15T17:22:38.365Z,11.2
2022-09-15T17:32:38.458Z,10.8
2022-09-15T17:42:38.381Z,10.7
2022-09-15T17:52:38.410Z,10.7
2022-09-15T18:02:38.460Z,10.9
2022-09-15T18:12:38.571Z,11
2022-09-15T18:22:38.545Z,11
2022-09-15T18:32:38.482Z,11.1
2022-09-15T18:42:38.679Z,11.1
2022-09-15T18:52:38.611Z,11
2022-09-15T19:02:38.694Z,11
2022-09-15T19:12:38.576Z,11
2022-09-15T19:22:38.564Z,11.1
2022-09-15T19:32:38.623Z,10.9
2022-09-15T19:42:38.644Z,10.8
2022-09-15T19:52:38.642Z,10.8
2022-09-15T20:02:38.683Z,10.7
2022-09-15T20:12:38.732Z,10.6
2022-09-15T20:22:38.669Z,10.5
2022-09-15T20:32:38.723Z,10.4
2022-09-15T20:42:38.718Z,10.3
2022-09-15T20:52:38.782Z,10.1
2022-09-15T21:02:38.844Z,10.2
2022-09-15T21:22:38.805Z,10.1
2022-09-15T21:32:38.800Z,10.1
2022-09-15T21:42:38.823Z,10.1
2022-09-15T21:52:38.831Z,10.1
2022-09-15T22:02:38.873Z,10.1
2022-09-15T22:12:38.877Z,10.1
2022-09-15T22:22:38.929Z,10.1
2022-09-15T22:32:38.914Z,10
2022-09-15T22:42:38.958Z,10
2022-09-15T22:52:38.957Z,10
2022-09-15T23:02:39.007Z,9.9
2022-09-15T23:12:38.998Z,9.9
2022-09-15T23:22:39.024Z,9.9
2022-09-15T23:32:39.019Z,10
2022-09-15T23:42:39.066Z,10
2022-09-15T23:52:39.067Z,10
